Beijing Capital International Airport
ZBAA : now visible

Airfield :











YOU CAN JOIN US ON...

 
LOGIN :

Register | Disclaimer

   EN    FR    IT 

 









Legend :    VFR   Marginal VFR   IFR   Intensive IFR   Very Intensive IFR
Visi :
Ceiling :
>= 8 km
>= 3000ft
5 to 8 km
1000 to 3000 ft
1500m to 5 km
500 to 1000 ft
800 to 1500m
200 to 500 ft
< 800m
< 200 ft
Symbols :   Thunderstorms  Fog  Heavy snow  Heavy precipitations  Wind > 20 kt






- Airport Elevation : 116 ft
- IATA code : PEK


ZBAA - Beijing Capital International

CURRENT METAR :
  • 211600Z 34002MPS 4000 BR NSC 01/M01 Q1025 NOSIG

EXPIRED METARs :
  • 211530Z VRB01MPS 4000 BR NSC 00/M01 Q1025 NOSIG
  • 211500Z 35002MPS 4000 BR NSC M01/M02 Q1026 NOSIG
  • 211430Z VRB01MPS 4000 BR NSC M00/M01 Q1026 NOSIG
  • 211400Z 00000MPS 4000 BR NSC M01/M02 Q1026 NOSIG
  • 211330Z VRB01MPS 4000 BR NSC M00/M01 Q1026 NOSIG
  • 211300Z VRB01MPS 4000 BR NSC M01/M02 Q1025 NOSIG

TAF TAF ZBAA
Valid from the 21 at 12:00 until the 22 at 12:00 UTC


210930Z 2112/2212 03004MPS 3500 BR NSC TX08/2207Z TN00/2121Z



MET'MAP, your aeronautical weather chart ! - Copyright ORBIFLY December 2007 - Disclaimer

ORBIFLY MET'MAP TEAM :

Programming & Development : Alexandra Zaïnal
Concept & Development : Baudouin d'Aumeries
Co-Development & Prog : Marc-Olivier Méhu
Technical & hardware support : Manuel Goepfert

Contact : metmap@orbifly.com




SOURCES & CREDITS :

   NOAA       Earth
Advisory